Time;durP1;ratioP1;P1;durP2;ratioP2;P2;SDS_P1;SDS_P2;PMS_P1;PMS_P2;Temp;Humidity;BMP_temperature;BMP_pressure;BME280_temperature;BME280_humidity;BME280_pressure;Samples;Min_cycle;Max_cycle;Signal;HPM_P1;HPM_P2
2022/10/25 00:02:04;;;;;;;1.00;0.40;;;;;;;8.91;100.00;100383.31;5037837;28;20028;-59
2022/10/25 00:04:30;;;;;;;1.83;0.30;;;;;;;8.84;100.00;100383.22;5045919;28;20040;-60
2022/10/25 00:06:55;;;;;;;2.60;0.82;;;;;;;8.84;100.00;100388.50;5040023;28;20059;-59
2022/10/25 00:09:20;;;;;;;1.75;0.52;;;;;;;8.87;100.00;100382.84;5039541;28;20033;-60
2022/10/25 00:11:46;;;;;;;5.43;0.32;;;;;;;8.85;100.00;100382.19;5043594;28;20029;-56
2022/10/25 00:14:17;;;;;;;11.57;1.58;;;;;;;8.84;100.00;100379.75;5034625;28;20483;-52
2022/10/25 00:16:42;;;;;;;2.20;0.40;;;;;;;8.87;100.00;100380.19;5033803;28;20033;-53
2022/10/25 00:19:10;;;;;;;5.30;0.95;;;;;;;8.81;100.00;100383.59;5038821;28;20022;-55
2022/10/25 00:21:36;;;;;;;2.47;0.13;;;;;;;8.83;100.00;100386.88;5038589;28;20030;-53
2022/10/25 00:24:01;;;;;;;1.00;0.10;;;;;;;8.25;100.00;100388.38;5034522;28;20079;-55
2022/10/25 00:26:26;;;;;;;4.40;0.47;;;;;;;8.20;100.00;100388.09;5042712;28;20049;-53
2022/10/25 00:28:54;;;;;;;0.40;0.00;;;;;;;8.62;100.00;100384.09;5035507;28;20057;-58
2022/10/25 00:31:19;;;;;;;0.68;0.10;;;;;;;8.30;100.00;100391.31;5043035;28;20424;-55
2022/10/25 00:33:45;;;;;;;0.20;0.00;;;;;;;8.03;100.00;100390.88;5036714;28;20037;-57
2022/10/25 00:36:13;;;;;;;1.67;0.17;;;;;;;7.93;100.00;100390.28;5032799;28;20032;-57
2022/10/25 00:38:39;;;;;;;1.08;0.10;;;;;;;7.81;100.00;100394.31;5043387;28;20059;-59
2022/10/25 00:41:05;;;;;;;2.03;0.50;;;;;;;7.70;100.00;100397.38;5038537;28;20021;-57
2022/10/25 00:43:38;;;;;;;0.32;0.17;;;;;;;7.67;100.00;100392.41;5039993;28;20029;-57
2022/10/25 00:46:10;;;;;;;0.90;0.20;;;;;;;7.67;100.00;100387.97;5034262;28;20148;-56
2022/10/25 00:48:35;;;;;;;1.63;0.98;;;;;;;7.60;100.00;100394.94;5036076;28;20025;-59
2022/10/25 00:51:02;;;;;;;0.30;0.30;;;;;;;7.76;100.00;100396.66;5033094;28;20060;-56
2022/10/25 00:53:31;;;;;;;6.22;0.70;;;;;;;7.88;100.00;100399.72;5034850;28;20103;-58
2022/10/25 00:56:17;;;;;;;4.32;1.42;;;;;;;8.01;100.00;100402.59;5033177;28;20175;-55
2022/10/25 00:58:48;;;;;;;3.28;1.83;;;;;;;7.98;100.00;100409.06;5032585;28;20086;-55
2022/10/25 01:01:14;;;;;;;4.40;0.10;;;;;;;7.83;100.00;100413.44;5038729;28;20033;-58
2022/10/25 01:03:43;;;;;;;1.05;0.47;;;;;;;7.68;100.00;100417.81;5041747;28;20314;-54
2022/10/25 01:06:32;;;;;;;0.30;0.20;;;;;;;7.63;100.00;100407.78;5039272;28;20071;-57
2022/10/25 01:08:58;;;;;;;0.75;0.25;;;;;;;7.48;100.00;100402.41;5038456;28;20025;-55
2022/10/25 01:11:24;;;;;;;0.43;0.10;;;;;;;7.43;100.00;100410.00;5039706;28;20108;-56
2022/10/25 01:13:50;;;;;;;0.15;0.13;;;;;;;7.70;100.00;100402.63;5047212;28;20171;-59
2022/10/25 01:16:38;;;;;;;0.15;0.15;;;;;;;7.77;100.00;100406.19;5045168;28;20032;-54
2022/10/25 01:19:15;;;;;;;4.28;0.43;;;;;;;7.75;100.00;100408.22;5045289;28;20025;-56
2022/10/25 01:21:51;;;;;;;3.30;0.30;;;;;;;7.63;100.00;100411.22;5042640;28;20456;-53
2022/10/25 01:24:38;;;;;;;0.22;0.10;;;;;;;7.52;100.00;100409.00;5047006;28;20048;-53
2022/10/25 01:27:21;;;;;;;1.27;0.10;;;;;;;7.46;100.00;100408.84;5034112;28;20099;-57
2022/10/25 01:30:07;;;;;;;0.25;0.10;;;;;;;7.41;100.00;100409.38;5034347;28;20422;-54
2022/10/25 01:32:37;;;;;;;3.40;0.08;;;;;;;7.40;100.00;100405.09;5039221;28;20060;-54
2022/10/25 01:35:13;;;;;;;3.42;0.52;;;;;;;7.61;100.00;100407.13;5043525;28;20028;-52
2022/10/25 01:38:13;;;;;;;0.50;0.10;;;;;;;7.54;100.00;100414.13;5042550;28;20064;-56
2022/10/25 01:40:53;;;;;;;0.57;0.15;;;;;;;7.50;100.00;100418.91;5015048;28;20041;-52
2022/10/25 01:43:51;;;;;;;0.75;0.10;;;;;;;7.42;100.00;100416.28;5032322;28;20440;-54
2022/10/25 01:46:31;;;;;;;3.22;1.05;;;;;;;7.51;100.00;100420.56;5035335;28;20025;-52
2022/10/25 01:49:05;;;;;;;1.10;0.52;;;;;;;7.61;100.00;100421.13;5039908;28;20089;-58
2022/10/25 01:51:35;;;;;;;6.00;1.13;;;;;;;7.73;100.00;100415.47;5044670;28;20025;-58
2022/10/25 01:54:00;;;;;;;5.28;1.10;;;;;;;7.87;100.00;100417.34;5040560;28;20219;-58
2022/10/25 01:56:48;;;;;;;1.95;0.55;;;;;;;8.00;100.00;100415.00;5038444;28;20256;-59
2022/10/25 01:59:22;;;;;;;2.28;0.15;;;;;;;8.08;100.00;100414.94;5039036;28;20095;-53
2022/10/25 02:02:02;;;;;;;2.72;0.30;;;;;;;8.11;100.00;100415.56;5032688;28;20039;-59
2022/10/25 02:04:43;;;;;;;3.88;1.15;;;;;;;7.98;100.00;100424.09;5043747;28;20028;-57
2022/10/25 02:07:18;;;;;;;3.10;0.40;;;;;;;7.81;100.00;100418.88;5049396;28;20079;-56
2022/10/25 02:10:00;;;;;;;20.73;1.73;;;;;;;7.65;100.00;100421.63;5038249;28;20110;-59
2022/10/25 02:12:41;;;;;;;0.45;0.10;;;;;;;7.51;100.00;100417.91;5042325;28;20029;-56
2022/10/25 02:15:10;;;;;;;2.53;0.00;;;;;;;7.41;100.00;100419.94;5044769;28;20021;-54
2022/10/25 02:17:45;;;;;;;0.45;0.00;;;;;;;7.31;100.00;100422.78;5035222;28;20422;-60
2022/10/25 02:20:16;;;;;;;0.03;0.03;;;;;;;7.29;100.00;100422.13;5041791;28;20517;-56
2022/10/25 02:22:42;;;;;;;0.17;0.10;;;;;;;7.18;100.00;100420.69;5044926;28;20241;-53
2022/10/25 02:25:08;;;;;;;2.10;0.10;;;;;;;7.10;100.00;100418.06;5040261;28;20037;-54
2022/10/25 02:27:37;;;;;;;0.60;0.08;;;;;;;7.09;100.00;100416.41;5038547;28;20071;-52
2022/10/25 02:30:05;;;;;;;0.85;0.40;;;;;;;7.06;100.00;100426.50;5045313;28;20029;-52
2022/10/25 02:32:30;;;;;;;1.20;0.15;;;;;;;7.01;100.00;100423.53;5035159;28;20451;-55
2022/10/25 02:34:56;;;;;;;0.73;0.00;;;;;;;6.98;100.00;100429.97;5043850;28;20101;-52
2022/10/25 02:37:21;;;;;;;0.00;0.00;;;;;;;7.00;100.00;100425.34;5033279;28;20653;-52
2022/10/25 02:39:48;;;;;;;0.10;0.10;;;;;;;7.05;100.00;100419.56;5037806;28;20076;-53
2022/10/25 02:42:13;;;;;;;0.35;0.35;;;;;;;7.13;100.00;100422.19;5033468;28;20025;-54
2022/10/25 02:44:38;;;;;;;0.13;0.05;;;;;;;7.23;100.00;100422.81;5037795;28;20028;-53
2022/10/25 02:47:04;;;;;;;0.00;0.00;;;;;;;7.18;100.00;100415.41;5031550;28;20033;-57
2022/10/25 02:49:29;;;;;;;0.00;0.00;;;;;;;7.07;100.00;100421.03;5032386;28;20471;-56
2022/10/25 02:51:55;;;;;;;0.00;0.00;;;;;;;6.98;100.00;100414.16;5033912;28;20033;-59
2022/10/25 02:54:20;;;;;;;0.75;0.08;;;;;;;6.96;100.00;100416.94;5044503;28;20048;-53
2022/10/25 02:56:45;;;;;;;0.10;0.00;;;;;;;6.94;100.00;100415.47;5034938;28;20360;-56
2022/10/25 02:59:11;;;;;;;2.65;0.20;;;;;;;6.89;100.00;100417.78;5044320;28;20025;-53
2022/10/25 03:01:37;;;;;;;0.00;0.00;;;;;;;6.81;100.00;100416.00;5047615;28;20561;-53
2022/10/25 03:04:03;;;;;;;1.45;0.00;;;;;;;6.76;100.00;100413.03;5033896;28;20029;-54
2022/10/25 03:06:28;;;;;;;0.52;0.00;;;;;;;6.74;100.00;100421.13;5043719;28;20043;-59
2022/10/25 03:08:53;;;;;;;1.35;0.20;;;;;;;6.71;100.00;100418.81;5035496;28;20358;-56
2022/10/25 03:11:19;;;;;;;0.70;0.40;;;;;;;6.65;100.00;100422.09;5037738;28;20526;-59
2022/10/25 03:13:44;;;;;;;2.33;0.03;;;;;;;6.58;100.00;100421.13;5041887;28;20020;-59
2022/10/25 03:16:10;;;;;;;1.65;0.08;;;;;;;6.56;100.00;100417.84;5048348;28;20504;-59
2022/10/25 03:18:36;;;;;;;1.65;0.38;;;;;;;6.57;100.00;100419.50;5036841;28;20056;-58
2022/10/25 03:21:02;;;;;;;0.38;0.00;;;;;;;6.54;100.00;100417.19;5038122;28;20208;-55
2022/10/25 03:23:28;;;;;;;0.20;0.00;;;;;;;6.48;100.00;100421.31;5041204;28;20040;-57
2022/10/25 03:25:56;;;;;;;2.08;0.00;;;;;;;6.49;100.00;100422.97;5043276;28;20029;-55
2022/10/25 03:28:22;;;;;;;1.98;0.00;;;;;;;6.51;100.00;100422.81;5032285;28;20479;-58
2022/10/25 03:30:47;;;;;;;0.00;0.00;;;;;;;6.49;100.00;100427.41;5040057;28;20033;-54
2022/10/25 03:33:13;;;;;;;3.10;0.03;;;;;;;6.44;100.00;100433.16;5037073;28;20467;-56
2022/10/25 03:35:38;;;;;;;2.33;0.65;;;;;;;6.40;100.00;100431.00;5045682;28;20471;-54
2022/10/25 03:38:04;;;;;;;0.28;0.28;;;;;;;6.34;100.00;100435.94;5043765;28;20025;-55
2022/10/25 03:40:29;;;;;;;0.00;0.00;;;;;;;6.31;100.00;100438.91;5037635;28;20025;-55
2022/10/25 03:42:55;;;;;;;0.00;0.00;;;;;;;6.27;100.00;100437.63;5042938;28;20025;-57
2022/10/25 03:45:21;;;;;;;0.22;0.00;;;;;;;6.30;100.00;100439.91;5038695;28;20024;-59
2022/10/25 03:47:46;;;;;;;0.00;0.00;;;;;;;6.29;100.00;100440.06;5034444;28;20441;-57
2022/10/25 03:50:12;;;;;;;1.08;0.45;;;;;;;6.29;100.00;100448.78;5033509;28;20059;-57
2022/10/25 03:52:38;;;;;;;0.35;0.05;;;;;;;6.35;100.00;100442.06;5032715;28;20498;-58
2022/10/25 03:55:04;;;;;;;0.20;0.00;;;;;;;6.26;100.00;100445.69;5033281;28;20120;-54
2022/10/25 03:57:30;;;;;;;0.63;0.20;;;;;;;6.17;100.00;100439.59;5037502;28;20037;-56
2022/10/25 03:59:56;;;;;;;0.00;0.00;;;;;;;6.17;100.00;100442.22;5037199;28;20036;-59
2022/10/25 04:02:22;;;;;;;2.85;0.10;;;;;;;6.13;100.00;100440.06;5028666;28;20033;-55
2022/10/25 04:04:47;;;;;;;0.08;0.00;;;;;;;6.26;100.00;100441.22;5031127;28;20033;-57
2022/10/25 04:07:13;;;;;;;1.58;0.03;;;;;;;6.40;100.00;100450.31;5035602;28;20021;-59
2022/10/25 04:09:38;;;;;;;0.10;0.03;;;;;;;6.50;100.00;100442.22;5038963;28;20041;-59
2022/10/25 04:12:04;;;;;;;0.25;0.00;;;;;;;6.47;100.00;100445.19;5033720;28;20252;-56
2022/10/25 04:14:29;;;;;;;5.15;0.13;;;;;;;6.51;100.00;100455.22;5041696;28;20036;-52
2022/10/25 04:16:54;;;;;;;2.38;0.10;;;;;;;6.61;100.00;100454.22;5032677;28;20029;-52
2022/10/25 04:19:19;;;;;;;0.95;0.10;;;;;;;6.66;100.00;100455.41;5036216;28;20095;-56
2022/10/25 04:21:45;;;;;;;2.72;0.10;;;;;;;6.73;100.00;100448.44;5031988;28;20037;-52
2022/10/25 04:24:10;;;;;;;0.15;0.00;;;;;;;6.79;100.00;100449.63;5032707;28;20111;-54
2022/10/25 04:26:36;;;;;;;0.38;0.08;;;;;;;6.84;100.00;100454.38;5029799;28;20068;-57
2022/10/25 04:29:03;;;;;;;3.05;0.20;;;;;;;6.98;100.00;100456.31;5043207;28;20038;-59
2022/10/25 04:31:29;;;;;;;0.38;0.10;;;;;;;7.13;100.00;100454.66;5038888;28;20104;-59
2022/10/25 04:33:55;;;;;;;0.73;0.08;;;;;;;7.28;100.00;100461.84;5037817;28;20038;-57
2022/10/25 04:36:21;;;;;;;2.15;0.30;;;;;;;7.53;100.00;100459.94;5035284;28;20030;-59
2022/10/25 04:38:51;;;;;;;2.85;0.13;;;;;;;7.98;100.00;100467.16;5034163;28;20032;-54
2022/10/25 04:41:17;;;;;;;1.33;0.32;;;;;;;8.24;100.00;100473.91;5034629;28;20037;-59
2022/10/25 04:43:42;;;;;;;3.13;1.00;;;;;;;8.51;100.00;100483.97;5036973;28;20033;-56
2022/10/25 04:46:08;;;;;;;2.80;0.20;;;;;;;8.77;100.00;100487.22;5036015;28;20064;-54
2022/10/25 04:48:37;;;;;;;3.22;0.47;;;;;;;8.89;100.00;100478.69;5033802;28;20363;-52
2022/10/25 04:51:03;;;;;;;3.05;1.05;;;;;;;9.04;100.00;100478.72;5042326;28;20048;-57
2022/10/25 04:53:28;;;;;;;1.90;0.20;;;;;;;9.08;100.00;100479.97;5031903;28;20029;-53
2022/10/25 04:55:56;;;;;;;8.98;0.75;;;;;;;9.17;100.00;100478.91;5051376;28;20037;-58
2022/10/25 04:58:21;;;;;;;3.80;0.95;;;;;;;9.18;100.00;100485.00;5036164;28;20057;-54
2022/10/25 05:00:47;;;;;;;8.20;1.05;;;;;;;9.23;100.00;100482.63;5042521;28;20067;-57
2022/10/25 05:03:12;;;;;;;3.95;0.45;;;;;;;9.31;100.00;100489.66;5031403;28;20059;-59
2022/10/25 05:05:38;;;;;;;3.03;0.40;;;;;;;9.33;100.00;100496.41;5040404;28;20083;-54
2022/10/25 05:08:03;;;;;;;5.55;0.93;;;;;;;9.34;100.00;100489.28;5038221;28;20033;-56
2022/10/25 05:10:28;;;;;;;9.32;2.83;;;;;;;9.31;100.00;100490.47;5032491;28;20030;-56
2022/10/25 05:12:54;;;;;;;4.38;0.20;;;;;;;9.35;100.00;100499.72;5038835;28;20024;-59
2022/10/25 05:15:20;;;;;;;1.55;1.27;;;;;;;9.41;100.00;100499.97;5036925;28;20029;-58
2022/10/25 05:17:45;;;;;;;5.18;0.95;;;;;;;9.46;100.00;100505.56;5035313;28;20037;-59
2022/10/25 05:20:10;;;;;;;4.30;0.47;;;;;;;9.47;100.00;100507.19;5039417;28;20053;-55
2022/10/25 05:22:36;;;;;;;7.45;0.50;;;;;;;9.55;100.00;100507.06;5036211;28;20442;-58
2022/10/25 05:25:01;;;;;;;11.80;2.05;;;;;;;9.54;100.00;100511.56;5032983;28;20107;-56
2022/10/25 05:27:26;;;;;;;1.73;0.10;;;;;;;9.51;100.00;100505.81;5038663;28;20048;-55
2022/10/25 05:29:52;;;;;;;0.95;0.10;;;;;;;9.49;100.00;100508.63;5031713;28;20033;-57
2022/10/25 05:32:17;;;;;;;1.42;0.40;;;;;;;9.47;100.00;100510.66;5036537;28;20026;-55
2022/10/25 05:34:42;;;;;;;2.30;1.20;;;;;;;9.48;100.00;100506.19;5042893;28;20439;-60
2022/10/25 05:37:08;;;;;;;1.88;0.10;;;;;;;9.45;100.00;100506.53;5031056;28;20415;-59
2022/10/25 05:39:33;;;;;;;7.05;1.65;;;;;;;9.47;100.00;100512.47;5042605;28;20400;-60
2022/10/25 05:41:59;;;;;;;3.60;0.20;;;;;;;9.48;100.00;100507.00;5035749;28;20033;-60
2022/10/25 05:44:24;;;;;;;5.43;1.80;;;;;;;9.47;100.00;100509.81;5040493;28;20021;-59
2022/10/25 05:46:50;;;;;;;5.45;0.00;;;;;;;9.46;100.00;100516.13;5048680;28;20025;-59
2022/10/25 05:49:16;;;;;;;2.28;0.30;;;;;;;9.44;100.00;100520.78;5030810;28;20036;-55
2022/10/25 05:51:41;;;;;;;4.07;0.60;;;;;;;9.48;100.00;100517.59;5040069;28;20455;-59
2022/10/25 05:54:12;;;;;;;6.35;0.90;;;;;;;9.53;100.00;100525.81;5032438;28;20413;-59
2022/10/25 05:56:38;;;;;;;5.13;0.40;;;;;;;9.53;100.00;100525.00;5034393;28;20029;-58
2022/10/25 05:59:08;;;;;;;3.42;0.70;;;;;;;9.54;100.00;100523.97;5035540;28;20483;-60
2022/10/25 06:01:34;;;;;;;1.83;0.40;;;;;;;9.51;100.00;100530.47;5032121;28;20092;-58
2022/10/25 06:04:00;;;;;;;4.93;2.45;;;;;;;9.44;100.00;100528.72;5036494;28;20108;-59
2022/10/25 06:06:26;;;;;;;7.88;0.30;;;;;;;9.34;100.00;100527.16;5033049;28;20541;-55
2022/10/25 06:08:56;;;;;;;12.60;2.00;;;;;;;9.31;100.00;100532.81;5031195;28;20034;-57
2022/10/25 06:11:22;;;;;;;2.10;0.20;;;;;;;9.28;100.00;100535.00;5037495;28;20037;-59
2022/10/25 06:13:47;;;;;;;0.95;0.30;;;;;;;9.30;100.00;100536.47;5032565;28;20059;-54
2022/10/25 06:16:16;;;;;;;7.90;1.55;;;;;;;9.34;100.00;100537.75;5031748;28;20530;-55
2022/10/25 06:18:42;;;;;;;5.15;0.30;;;;;;;9.31;100.00;100545.22;5041854;28;20045;-59
2022/10/25 06:21:13;;;;;;;8.63;1.50;;;;;;;9.33;100.00;100541.41;5044314;28;20022;-57
2022/10/25 06:23:40;;;;;;;1.67;0.60;;;;;;;9.34;100.00;100547.50;5047301;28;20029;-60
2022/10/25 06:26:20;;;;;;;4.47;0.40;;;;;;;9.38;100.00;100549.63;5039811;28;20028;-60
2022/10/25 06:28:46;;;;;;;6.18;1.38;;;;;;;9.43;100.00;100557.03;5042577;28;20449;-60
2022/10/25 06:31:14;;;;;;;2.72;0.30;;;;;;;9.49;100.00;100558.13;5032618;28;20030;-58
2022/10/25 06:33:40;;;;;;;2.17;0.75;;;;;;;9.51;100.00;100548.16;5035411;28;20033;-61
2022/10/25 06:36:12;;;;;;;1.20;0.20;;;;;;;9.52;100.00;100557.75;5040733;28;20132;-59
2022/10/25 06:38:37;;;;;;;;;;;;;;;9.58;100.00;100557.03;5033776;28;20033;-61
2022/10/25 06:41:05;;;;;;;1.05;0.32;;;;;;;9.60;100.00;100552.34;5041271;28;20290;-58
2022/10/25 06:43:33;;;;;;;8.45;0.85;;;;;;;9.58;100.00;100559.69;5044120;28;20037;-57
2022/10/25 06:46:12;;;;;;;5.70;0.98;;;;;;;9.59;100.00;100558.66;5033898;28;20065;-57
2022/10/25 06:48:37;;;;;;;5.22;0.60;;;;;;;9.60;100.00;100565.59;5032036;28;20116;-53
2022/10/25 06:51:08;;;;;;;4.45;0.55;;;;;;;9.63;100.00;100557.31;5042296;28;20615;-58
2022/10/25 06:53:34;;;;;;;6.65;0.98;;;;;;;9.64;100.00;100564.22;5035787;28;20367;-53
2022/10/25 06:56:06;;;;;;;0.98;0.17;;;;;;;9.68;100.00;100564.69;5038568;28;20167;-55
2022/10/25 06:58:33;;;;;;;1.33;0.35;;;;;;;9.69;100.00;100561.84;5036658;28;20055;-61
2022/10/25 07:01:06;;;;;;;11.02;0.70;;;;;;;9.70;100.00;100575.91;5040601;28;20111;-55
2022/10/25 07:03:35;;;;;;;3.60;0.60;;;;;;;9.70;100.00;100573.25;5036906;28;20378;-58
2022/10/25 07:06:06;;;;;;;2.65;0.93;;;;;;;9.71;100.00;100575.75;5033524;28;20026;-55
2022/10/25 07:08:32;;;;;;;;;;;;;;;9.75;100.00;100581.47;5036191;28;20029;-58
2022/10/25 07:10:58;;;;;;;2.92;1.25;;;;;;;9.74;100.00;100585.16;5036924;28;19917;-57
2022/10/25 07:13:24;;;;;;;1.42;0.60;;;;;;;9.75;100.00;100592.88;5046225;28;20083;-57
2022/10/25 07:15:49;;;;;;;5.30;0.40;;;;;;;9.78;100.00;100586.41;5038102;28;20387;-58
2022/10/25 07:18:15;;;;;;;7.43;1.95;;;;;;;9.82;100.00;100591.16;5045234;28;20033;-60
2022/10/25 07:24:03;;;;;;;;;;;;;;;9.95;100.00;100595.00;5034145;28;20040;-59
2022/10/25 07:26:34;;;;;;;3.25;0.28;;;;;;;9.98;100.00;100598.09;5033496;28;20374;-59
2022/10/25 07:29:01;;;;;;;0.75;0.40;;;;;;;10.03;100.00;100602.84;5032955;28;20147;-56
2022/10/25 07:31:35;;;;;;;6.63;2.83;;;;;;;10.11;100.00;100608.03;5033042;28;20379;-56
2022/10/25 07:34:03;;;;;;;4.75;1.40;;;;;;;10.14;100.00;100607.66;5039464;28;20370;-60
2022/10/25 07:36:28;;;;;;;8.20;1.63;;;;;;;10.14;100.00;100610.31;5047323;28;20024;-58
2022/10/25 07:38:55;;;;;;;6.82;0.80;;;;;;;10.17;100.00;100615.25;5042172;28;20025;-52
2022/10/25 07:41:20;;;;;;;7.85;1.00;;;;;;;10.21;100.00;100611.22;5036758;28;20041;-58
2022/10/25 07:43:45;;;;;;;6.25;1.23;;;;;;;10.26;100.00;100615.97;5047362;28;20040;-58
2022/10/25 07:46:11;;;;;;;4.97;0.70;;;;;;;10.30;100.00;100616.44;5034786;28;20671;-54
2022/10/25 07:48:36;;;;;;;3.90;1.27;;;;;;;10.35;100.00;100622.84;5045978;28;20016;-56
2022/10/25 07:51:09;;;;;;;5.13;1.60;;;;;;;10.42;100.00;100623.72;5044814;28;20025;-52
2022/10/25 07:53:34;;;;;;;2.92;0.85;;;;;;;10.44;100.00;100623.56;5030951;28;20172;-54
2022/10/25 07:56:00;;;;;;;2.55;0.98;;;;;;;10.48;100.00;100630.94;5033669;28;20111;-58
2022/10/25 07:58:25;;;;;;;3.03;2.03;;;;;;;10.46;100.00;100625.00;5030563;28;20029;-58
2022/10/25 08:00:50;;;;;;;5.22;1.23;;;;;;;10.46;100.00;100632.16;5036145;28;20032;-59
2022/10/25 08:03:17;;;;;;;4.53;1.70;;;;;;;10.46;100.00;100632.97;5030767;28;20032;-55
2022/10/25 08:05:44;;;;;;;1.65;0.80;;;;;;;10.47;100.00;100634.59;5037042;28;20037;-56
2022/10/25 08:08:09;;;;;;;1.98;0.88;;;;;;;10.56;100.00;100632.66;5028170;28;20060;-53
2022/10/25 08:10:35;;;;;;;3.80;0.65;;;;;;;10.66;100.00;100635.84;5028397;28;20033;-57
2022/10/25 08:13:00;;;;;;;2.40;1.45;;;;;;;10.75;100.00;100638.38;5034733;28;20021;-55
2022/10/25 08:15:25;;;;;;;6.15;1.50;;;;;;;10.86;100.00;100635.22;5026577;28;20032;-58
2022/10/25 08:18:01;;;;;;;5.93;1.10;;;;;;;10.94;100.00;100640.38;5029079;28;20029;-59
2022/10/25 08:20:27;;;;;;;5.80;1.65;;;;;;;10.95;100.00;100636.75;5036271;28;20127;-59
2022/10/25 08:22:57;;;;;;;6.88;2.03;;;;;;;11.01;100.00;100635.97;5027857;28;20425;-57
2022/10/25 08:25:22;;;;;;;5.90;0.80;;;;;;;11.04;100.00;100646.19;5032046;28;20025;-59
2022/10/25 08:27:47;;;;;;;9.77;1.52;;;;;;;11.05;100.00;100641.75;4991533;28;1152222;-56
2022/10/25 08:30:13;;;;;;;7.68;1.42;;;;;;;11.06;100.00;100644.19;5039185;28;20064;-59
2022/10/25 08:32:38;;;;;;;9.07;1.70;;;;;;;11.08;100.00;100636.03;5028410;28;20030;-59
2022/10/25 08:35:04;;;;;;;3.22;1.00;;;;;;;11.18;100.00;100641.00;5031959;28;20450;-59
2022/10/25 08:37:29;;;;;;;7.28;2.35;;;;;;;11.23;100.00;100643.91;5039601;28;20032;-59
2022/10/25 08:39:55;;;;;;;0.88;0.73;;;;;;;11.25;100.00;100647.19;5036194;28;20390;-59
2022/10/25 08:42:30;;;;;;;3.25;0.70;;;;;;;11.31;100.00;100638.50;5036042;28;20513;-59
2022/10/25 08:45:16;;;;;;;2.63;0.50;;;;;;;11.49;100.00;100648.63;5028633;28;20049;-59
2022/10/25 08:47:45;;;;;;;6.63;0.63;;;;;;;11.61;100.00;100648.91;5033805;28;20031;-59
2022/10/25 08:50:24;;;;;;;1.92;0.88;;;;;;;11.61;100.00;100646.25;5026848;28;20303;-58
2022/10/25 08:52:57;;;;;;;3.97;0.65;;;;;;;11.66;100.00;100649.16;5034132;28;20060;-58
2022/10/25 08:55:33;;;;;;;7.38;0.65;;;;;;;11.79;100.00;100647.41;5031098;28;20033;-59
2022/10/25 08:58:01;;;;;;;5.40;0.55;;;;;;;11.89;100.00;100647.09;5033532;28;20033;-58
2022/10/25 09:00:34;;;;;;;3.08;0.22;;;;;;;11.98;100.00;100648.59;5036213;28;20111;-59
2022/10/25 09:03:01;;;;;;;1.65;0.88;;;;;;;12.01;100.00;100663.31;5034702;28;20033;-56
2022/10/25 09:05:58;;;;;;;7.13;1.38;;;;;;;12.05;100.00;100658.41;5034587;28;20040;-59
2022/10/25 09:08:30;;;;;;;10.20;0.40;;;;;;;12.05;100.00;100667.19;5030259;28;20041;-59
2022/10/25 09:11:16;;;;;;;1.73;0.68;;;;;;;12.15;100.00;100661.53;5037424;28;20515;-58
2022/10/25 09:13:51;;;;;;;9.55;1.75;;;;;;;12.24;100.00;100665.69;5030878;28;20055;-56
2022/10/25 09:16:50;;;;;;;12.75;0.73;;;;;;;12.23;100.00;100677.31;5035913;28;20036;-54
2022/10/25 09:19:43;;;;;;;2.13;0.63;;;;;;;12.37;100.00;100668.41;5029026;28;20044;-59
2022/10/25 09:22:44;;;;;;;7.82;1.85;;;;;;;12.49;100.00;100665.16;5027569;28;20041;-56
2022/10/25 09:25:31;;;;;;;4.85;0.30;;;;;;;12.39;100.00;100671.69;5031192;28;20029;-60
2022/10/25 09:28:02;;;;;;;6.82;0.85;;;;;;;12.33;100.00;100675.13;5030642;28;20061;-59
2022/10/25 09:30:38;;;;;;;1.73;0.60;;;;;;;12.27;100.00;100675.91;5031817;28;20031;-54
2022/10/25 09:33:10;;;;;;;2.72;0.47;;;;;;;12.27;100.00;100678.56;5037009;28;20059;-53
2022/10/25 09:35:48;;;;;;;0.60;0.60;;;;;;;12.34;100.00;100675.94;5031971;28;20030;-54
2022/10/25 09:38:24;;;;;;;4.55;0.88;;;;;;;12.39;100.00;100676.16;5028636;28;20033;-55
2022/10/25 09:41:00;;;;;;;4.45;0.90;;;;;;;12.46;100.00;100670.88;5039194;28;20037;-57
2022/10/25 09:43:37;;;;;;;5.22;2.50;;;;;;;12.57;100.00;100681.78;5039635;28;20028;-57
2022/10/25 09:46:12;;;;;;;6.38;1.38;;;;;;;12.66;100.00;100674.44;5031415;28;20025;-57
2022/10/25 09:48:46;;;;;;;7.18;1.20;;;;;;;12.77;100.00;100673.84;5031935;28;20434;-58
2022/10/25 09:51:20;;;;;;;2.65;0.80;;;;;;;12.78;100.00;100674.69;5031718;28;20118;-56
2022/10/25 09:53:46;;;;;;;7.50;1.23;;;;;;;12.85;100.00;100667.53;5033131;28;20028;-59
2022/10/25 09:56:11;;;;;;;4.55;0.77;;;;;;;12.87;100.00;100668.97;5032185;28;20970;-57
2022/10/25 09:58:39;;;;;;;1.88;0.60;;;;;;;12.93;100.00;100670.00;5038408;28;20029;-56
2022/10/25 10:01:11;;;;;;;3.22;1.23;;;;;;;12.98;100.00;100675.53;5037670;28;20107;-59
2022/10/25 10:03:37;;;;;;;7.75;1.48;;;;;;;13.15;100.00;100673.31;5031204;28;20106;-58
2022/10/25 10:06:15;;;;;;;5.65;1.15;;;;;;;13.28;100.00;100678.69;5038466;28;20033;-57
2022/10/25 10:08:47;;;;;;;5.68;0.73;;;;;;;13.34;100.00;100676.22;5045698;28;20501;-58
2022/10/25 10:11:16;;;;;;;5.47;1.35;;;;;;;13.36;100.00;100666.19;5044548;28;20114;-58
2022/10/25 10:13:50;;;;;;;5.95;2.38;;;;;;;13.42;100.00;100665.34;5035614;28;20604;-57
2022/10/25 10:16:20;;;;;;;8.73;0.93;;;;;;;13.45;100.00;100659.63;5041653;28;20037;-52
2022/10/25 10:18:46;;;;;;;5.38;0.95;;;;;;;13.28;100.00;100664.56;5048352;28;20539;-53
2022/10/25 10:21:18;;;;;;;6.88;1.05;;;;;;;13.06;100.00;100655.88;5043888;28;20086;-56
2022/10/25 10:23:48;;;;;;;4.20;0.55;;;;;;;12.90;100.00;100657.09;5033720;28;20122;-58
2022/10/25 10:26:22;;;;;;;1.58;0.55;;;;;;;12.91;100.00;100658.75;5043242;28;20382;-60
2022/10/25 10:28:51;;;;;;;7.68;1.35;;;;;;;13.13;100.00;100653.25;5035544;28;20056;-58
2022/10/25 10:31:18;;;;;;;1.95;0.63;;;;;;;13.31;100.00;100656.16;5048219;28;20029;-59
2022/10/25 10:33:50;;;;;;;6.47;1.02;;;;;;;13.42;100.00;100652.84;5032653;28;20482;-57
2022/10/25 10:36:27;;;;;;;5.28;0.90;;;;;;;13.59;100.00;100649.78;5033167;28;20037;-57
2022/10/25 10:38:54;;;;;;;3.25;1.05;;;;;;;13.97;100.00;100644.59;5046448;28;20033;-59
2022/10/25 10:41:26;;;;;;;7.57;0.98;;;;;;;14.22;100.00;100636.72;5040144;28;20033;-59
2022/10/25 10:44:15;;;;;;;4.40;0.95;;;;;;;14.33;100.00;100629.91;5038037;28;20029;-59
2022/10/25 10:46:45;;;;;;;5.55;0.45;;;;;;;14.30;100.00;100620.50;5035802;28;20166;-57
2022/10/25 10:49:12;;;;;;;5.63;0.93;;;;;;;14.46;100.00;100621.84;5040754;28;20028;-57
2022/10/25 10:51:41;;;;;;;10.75;0.65;;;;;;;14.55;100.00;100611.78;5039893;28;20075;-59
2022/10/25 10:54:25;;;;;;;6.47;0.32;;;;;;;14.73;100.00;100611.03;5040834;28;20047;-58
2022/10/25 10:56:56;;;;;;;3.85;0.47;;;;;;;14.72;100.00;100607.56;5037274;28;20049;-54
2022/10/25 10:59:31;;;;;;;;;;;;;;;14.57;100.00;100593.69;5038215;28;20021;-58
2022/10/25 11:02:08;;;;;;;1.95;0.20;;;;;;;14.59;100.00;100595.13;5041753;28;19920;-56
2022/10/25 11:04:45;;;;;;;6.32;0.38;;;;;;;14.88;100.00;100595.53;5034862;28;20382;-56
2022/10/25 11:07:38;;;;;;;2.45;0.65;;;;;;;15.03;100.00;100588.03;5036292;28;20017;-54
2022/10/25 11:10:16;;;;;;;1.92;1.17;;;;;;;15.12;100.00;100583.22;5037746;28;20041;-59
2022/10/25 11:12:42;;;;;;;6.82;0.65;;;;;;;15.04;100.00;100568.31;5037161;28;20540;-57
2022/10/25 11:15:12;;;;;;;7.55;1.88;;;;;;;15.11;100.00;100562.09;5039487;28;20021;-54
2022/10/25 11:17:47;;;;;;;10.85;0.57;;;;;;;15.12;100.00;100558.38;5046893;28;20094;-59
2022/10/25 11:20:32;;;;;;;6.20;0.63;;;;;;;15.12;100.00;100566.41;5036388;28;20503;-56
2022/10/25 11:23:12;;;;;;;4.07;1.10;;;;;;;15.03;100.00;100556.00;5027108;28;20029;-55
2022/10/25 11:25:45;;;;;;;14.25;1.80;;;;;;;14.82;100.00;100546.53;5032183;28;20053;-54
2022/10/25 11:28:29;;;;;;;4.00;0.65;;;;;;;14.94;100.00;100541.28;5028477;28;20057;-57
2022/10/25 11:31:14;;;;;;;5.47;1.17;;;;;;;15.15;100.00;100552.59;5030202;28;20028;-56
2022/10/25 11:33:48;;;;;;;3.42;0.65;;;;;;;15.28;100.00;100547.13;5030606;28;20379;-57
2022/10/25 11:36:21;;;;;;;3.40;0.30;;;;;;;15.35;100.00;100531.88;5034432;28;20024;-60
2022/10/25 11:38:46;;;;;;;2.40;0.32;;;;;;;15.44;100.00;100509.19;5035638;28;20067;-52